Terminal Aerodrome Forecast
Issued by NWS Mt. Holly, NJ

Home | Current Version | Previous Version | Text Only | Print | Product List | Glossary On
Versions: 1 2 3 4 5 6 7 8 9 10 11 12 13 14 15 16 17 18 19
000
FTUS41 KPHI 220231 AAA
TAFACY
TAF AMD
KACY 220231Z 2203/2224 20012KT P6SM BKN150
     FM220600 19005KT P6SM -RA SCT025 OVC060
      TEMPO 2206/2208 5SM -RA OVC030
     FM220800 21005KT 4SM RA BKN015 OVC035
     FM221100 24005KT 5SM -RA OVC010
     FM221400 27010KT P6SM SCT025 BKN040
     FM221800 32015G25KT P6SM SKC=

USA.gov is the U.S. government's official web portal to all federal, state and local government web resources and services.